Time;durP1;ratioP1;P1;durP2;ratioP2;P2;SDS_P1;SDS_P2;PMS_P1;PMS_P2;Temp;Humidity;BMP_temperature;BMP_pressure;BME280_temperature;BME280_humidity;BME280_pressure;Samples;Min_cycle;Max_cycle;Signal;HPM_P1;HPM_P2
2022/08/05 00:02:31;;;;;;;6.60;3.30;;;26.90;81.50;;;;;;6998971;28;20435;-87
2022/08/05 00:05:53;;;;;;;6.83;3.70;;;26.90;81.80;;;;;;7000556;28;20511;-86
2022/08/05 00:09:15;;;;;;;6.18;3.50;;;26.80;83.70;;;;;;7005982;28;20438;-85
2022/08/05 00:12:41;;;;;;;5.60;3.33;;;26.40;83.90;;;;;;7006638;28;20423;-86
2022/08/05 00:16:04;;;;;;;5.82;3.30;;;26.20;84.80;;;;;;6992523;28;20433;-86
2022/08/05 00:19:27;;;;;;;5.97;3.35;;;26.00;84.70;;;;;;6978338;28;20436;-87
2022/08/05 00:22:49;;;;;;;5.27;3.30;;;26.00;84.60;;;;;;6979642;28;20444;-87
2022/08/05 00:26:12;;;;;;;5.10;3.30;;;26.10;85.20;;;;;;7003969;28;20457;-86
2022/08/05 00:29:35;;;;;;;5.18;3.28;;;26.20;85.30;;;;;;7005608;28;20789;-85
2022/08/05 00:32:58;;;;;;;5.40;3.30;;;26.30;85.60;;;;;;7014544;28;20576;-85
2022/08/05 00:36:21;;;;;;;6.10;3.50;;;26.30;85.30;;;;;;7005851;28;20420;-88
2022/08/05 00:39:43;;;;;;;6.47;3.30;;;26.20;85.20;;;;;;7008094;28;20827;-85
2022/08/05 00:43:05;;;;;;;5.80;3.67;;;26.20;86.10;;;;;;6984151;28;20493;-82
2022/08/05 00:46:29;;;;;;;5.32;3.60;;;26.10;86.10;;;;;;7002998;28;20435;-83
2022/08/05 00:49:51;;;;;;;8.10;5.00;;;26.10;85.10;;;;;;7005998;28;20434;-85
2022/08/05 00:53:14;;;;;;;11.07;8.27;;;26.10;80.70;;;;;;7015402;28;20441;-83
2022/08/05 00:56:37;;;;;;;12.63;8.17;;;26.10;79.40;;;;;;7017663;28;20427;-83
2022/08/05 01:00:00;;;;;;;8.02;4.63;;;26.20;79.30;;;;;;7003873;28;20423;-84
2022/08/05 01:03:24;;;;;;;7.82;5.60;;;26.00;83.40;;;;;;6992912;28;20435;-86
2022/08/05 01:06:48;;;;;;;8.73;5.40;;;25.80;83.50;;;;;;7022725;28;20435;-84
2022/08/05 01:10:13;;;;;;;7.72;5.40;;;25.80;83.00;;;;;;7023597;28;20419;-85
2022/08/05 01:13:47;;;;;;;7.60;4.77;;;25.80;79.60;;;;;;7032454;28;20427;-84
2022/08/05 01:17:14;;;;;;;9.13;4.70;;;25.90;79.80;;;;;;7032574;28;20442;-85
2022/08/05 01:20:52;;;;;;;6.13;4.30;;;26.00;79.10;;;;;;7029497;28;20431;-84
2022/08/05 01:24:36;;;;;;;5.40;3.70;;;25.80;79.80;;;;;;7029743;28;20415;-83
2022/08/05 01:28:19;;;;;;;5.90;3.58;;;25.80;78.90;;;;;;7029934;28;20443;-82
2022/08/05 01:31:46;;;;;;;7.70;3.80;;;25.60;79.40;;;;;;7024694;28;20598;-81
2022/08/05 01:35:13;;;;;;;5.15;3.10;;;25.40;80.80;;;;;;7029613;28;20419;-81
2022/08/05 01:38:37;;;;;;;6.43;3.47;;;25.30;78.60;;;;;;7025645;28;20407;-83
2022/08/05 01:42:01;;;;;;;6.30;3.60;;;25.30;79.90;;;;;;7027345;28;20531;-81
2022/08/05 01:45:26;;;;;;;4.55;3.30;;;25.30;80.30;;;;;;7014298;28;20419;-83
2022/08/05 01:48:50;;;;;;;6.10;3.10;;;25.40;78.40;;;;;;7001096;28;20431;-82
2022/08/05 01:52:14;;;;;;;5.40;2.93;;;25.30;77.20;;;;;;7002507;28;20445;-83
2022/08/05 01:55:37;;;;;;;6.40;3.20;;;25.50;77.20;;;;;;7002372;28;20490;-82
2022/08/05 01:59:03;;;;;;;6.82;3.20;;;25.50;77.60;;;;;;7000822;28;20428;-84
2022/08/05 02:02:29;;;;;;;7.95;3.20;;;25.50;77.60;;;;;;7000938;28;20435;-84
2022/08/05 02:05:53;;;;;;;6.47;2.88;;;25.50;77.90;;;;;;7002324;28;20431;-83
2022/08/05 02:09:15;;;;;;;6.38;3.08;;;25.50;77.80;;;;;;7002021;28;20449;-84
2022/08/05 02:12:44;;;;;;;7.63;2.80;;;25.50;78.00;;;;;;7002416;28;20423;-83
2022/08/05 02:16:20;;;;;;;5.90;2.80;;;25.50;78.00;;;;;;7001710;28;20916;-83
2022/08/05 02:19:48;;;;;;;6.05;2.90;;;25.50;77.80;;;;;;6990026;28;20446;-83
2022/08/05 02:23:13;;;;;;;6.32;2.85;;;25.60;77.60;;;;;;7000238;28;20442;-82
2022/08/05 02:26:43;;;;;;;8.25;2.80;;;25.60;77.40;;;;;;7001675;28;20932;-83
2022/08/05 02:30:09;;;;;;;5.88;2.65;;;25.60;77.60;;;;;;7000642;28;20905;-82
2022/08/05 02:33:36;;;;;;;9.35;2.80;;;25.70;77.20;;;;;;7000413;28;20432;-81
2022/08/05 02:37:06;;;;;;;6.38;2.65;;;25.80;77.80;;;;;;7001397;28;20419;-82
2022/08/05 02:40:29;;;;;;;6.38;2.80;;;25.80;77.40;;;;;;7001234;28;20435;-82
2022/08/05 02:43:52;;;;;;;6.07;2.80;;;25.80;79.00;;;;;;6984387;28;20438;-83
2022/08/05 02:47:16;;;;;;;5.72;2.80;;;25.90;78.90;;;;;;7002334;28;20443;-85
2022/08/05 02:50:40;;;;;;;5.93;2.72;;;25.90;80.00;;;;;;7001542;28;20431;-83
2022/08/05 02:54:06;;;;;;;7.95;2.78;;;25.80;79.80;;;;;;7001713;28;20423;-84
2022/08/05 02:57:29;;;;;;;5.97;2.73;;;25.80;79.30;;;;;;7001148;28;20427;-85
2022/08/05 03:00:53;;;;;;;8.32;2.90;;;25.80;79.80;;;;;;7019804;28;20430;-82
2022/08/05 03:04:15;;;;;;;6.20;2.75;;;25.80;78.80;;;;;;7015115;28;20861;-86
2022/08/05 03:07:39;;;;;;;8.17;2.73;;;25.70;80.60;;;;;;7007906;28;20427;-86
2022/08/05 03:11:03;;;;;;;9.63;2.80;;;25.70;78.80;;;;;;7021265;28;20434;-84
2022/08/05 03:14:25;;;;;;;5.43;2.67;;;25.80;79.20;;;;;;7009044;28;20421;-83
2022/08/05 03:17:47;;;;;;;7.40;2.80;;;25.80;79.40;;;;;;6999810;28;20413;-83
2022/08/05 03:21:10;;;;;;;6.15;2.70;;;25.70;80.20;;;;;;7017025;28;20412;-84
2022/08/05 03:24:33;;;;;;;4.75;2.72;;;25.70;80.60;;;;;;7029934;28;20498;-84
2022/08/05 03:27:59;;;;;;;6.03;2.60;;;25.70;80.00;;;;;;7024214;28;20438;-85
2022/08/05 03:31:22;;;;;;;5.40;2.78;;;25.70;81.10;;;;;;6993831;28;20433;-85
2022/08/05 03:34:45;;;;;;;6.03;2.90;;;25.70;81.50;;;;;;6977926;28;20425;-82
2022/08/05 03:38:08;;;;;;;6.23;3.00;;;25.50;82.10;;;;;;6974835;28;20436;-85
2022/08/05 03:41:32;;;;;;;7.75;3.13;;;25.30;84.70;;;;;;7005471;28;20498;-87
2022/08/05 03:44:55;;;;;;;6.30;3.15;;;25.00;86.70;;;;;;7015570;28;20438;-90
2022/08/05 03:48:18;;;;;;;7.00;3.10;;;25.00;84.30;;;;;;7010771;28;20427;-90
2022/08/05 03:51:51;;;;;;;7.13;3.20;;;24.80;85.60;;;;;;7003152;28;20462;-84
2022/08/05 03:55:19;;;;;;;8.48;3.20;;;24.80;86.70;;;;;;7001451;28;20459;-89
2022/08/05 03:58:46;;;;;;;6.68;3.20;;;25.00;86.30;;;;;;7003405;28;20424;-89
2022/08/05 04:02:11;;;;;;;5.95;3.00;;;25.10;85.80;;;;;;6993621;28;20444;-89
2022/08/05 04:05:35;;;;;;;7.65;3.05;;;25.00;86.00;;;;;;6981316;28;20440;-90
2022/08/05 04:08:58;;;;;;;6.47;2.90;;;25.00;86.00;;;;;;6968603;28;20425;-88
2022/08/05 04:12:21;;;;;;;6.93;3.05;;;25.00;86.00;;;;;;6986689;28;20428;-89
2022/08/05 04:15:43;;;;;;;7.28;3.20;;;25.00;85.20;;;;;;6982616;28;20432;-85
2022/08/05 04:19:06;;;;;;;7.78;3.03;;;25.00;84.90;;;;;;7011865;28;20427;-89
2022/08/05 04:22:29;;;;;;;8.23;3.00;;;25.10;84.30;;;;;;7016386;28;20454;-90
2022/08/05 04:25:51;;;;;;;6.65;3.10;;;25.20;82.80;;;;;;7001943;28;20423;-89
2022/08/05 04:29:13;;;;;;;5.60;2.90;;;24.60;82.80;;;;;;7008943;28;20880;-86
2022/08/05 04:32:35;;;;;;;8.27;3.10;;;24.40;84.70;;;;;;6993309;28;20426;-88
2022/08/05 04:35:59;;;;;;;6.90;2.90;;;24.50;85.90;;;;;;7006569;28;20424;-86
2022/08/05 04:39:21;;;;;;;7.75;3.05;;;24.80;85.00;;;;;;7014123;28;20435;-88
2022/08/05 04:42:44;;;;;;;7.25;3.00;;;25.00;83.70;;;;;;7032961;28;20427;-88
2022/08/05 04:46:06;;;;;;;4.97;2.72;;;25.10;82.90;;;;;;7031701;28;20427;-88
2022/08/05 04:49:28;;;;;;;8.43;2.90;;;25.10;83.10;;;;;;7033437;28;20438;-88
2022/08/05 04:52:51;;;;;;;6.88;2.80;;;25.20;82.90;;;;;;7027804;28;20450;-82
2022/08/05 04:56:14;;;;;;;6.10;3.20;;;25.10;83.10;;;;;;7029135;28;20460;-88
2022/08/05 04:59:36;;;;;;;6.93;3.50;;;24.70;84.80;;;;;;7019224;28;20510;-81
2022/08/05 05:02:58;;;;;;;6.75;3.38;;;24.20;87.30;;;;;;6990992;28;20437;-86
2022/08/05 05:06:20;;;;;;;7.78;3.20;;;23.60;88.90;;;;;;6992833;28;20452;-85
2022/08/05 05:09:44;;;;;;;8.43;3.60;;;23.70;89.60;;;;;;6970787;28;20428;-83
2022/08/05 05:13:06;;;;;;;7.30;3.90;;;23.60;90.10;;;;;;6979439;28;20434;-83
2022/08/05 05:16:28;;;;;;;6.43;3.90;;;23.40;90.60;;;;;;7003067;28;20435;-81
2022/08/05 05:19:53;;;;;;;7.93;3.70;;;23.30;91.40;;;;;;7003083;28;20439;-83
2022/08/05 05:23:16;;;;;;;6.57;3.78;;;23.10;91.60;;;;;;7004732;28;20439;-79
2022/08/05 05:26:39;;;;;;;6.63;3.38;;;23.00;91.20;;;;;;7002399;28;20539;-82
2022/08/05 05:30:02;;;;;;;6.88;3.72;;;23.00;91.40;;;;;;7002408;28;20428;-79
2022/08/05 05:33:24;;;;;;;6.80;3.58;;;23.00;91.50;;;;;;7000751;28;20431;-81
2022/08/05 05:36:46;;;;;;;6.85;3.40;;;22.90;91.90;;;;;;7000624;28;20434;-82
2022/08/05 05:40:10;;;;;;;8.00;3.67;;;22.90;92.10;;;;;;7001236;28;20432;-84
2022/08/05 05:43:34;;;;;;;6.97;3.63;;;23.00;92.20;;;;;;7002096;28;20809;-82
2022/08/05 05:46:56;;;;;;;9.38;3.63;;;23.10;92.10;;;;;;7003428;28;20446;-84
2022/08/05 05:50:19;;;;;;;7.82;3.33;;;23.30;91.90;;;;;;7005266;28;20426;-84
2022/08/05 05:53:41;;;;;;;9.10;3.60;;;23.30;91.80;;;;;;7003928;28;20917;-84
2022/08/05 05:57:04;;;;;;;10.52;3.60;;;23.40;91.70;;;;;;6988079;28;20457;-82
2022/08/05 06:00:27;;;;;;;8.70;3.25;;;23.70;91.70;;;;;;7002466;28;20431;-84
2022/08/05 06:03:49;;;;;;;9.00;3.30;;;23.70;91.40;;;;;;7000205;28;20447;-84
2022/08/05 06:07:11;;;;;;;9.93;3.60;;;23.90;91.30;;;;;;6998557;28;20785;-83
2022/08/05 06:10:33;;;;;;;9.52;3.42;;;24.00;91.50;;;;;;6997867;28;20435;-82
2022/08/05 06:13:56;;;;;;;7.70;3.40;;;24.00;91.60;;;;;;7000936;28;20428;-82
2022/08/05 06:17:19;;;;;;;6.90;3.40;;;24.10;90.90;;;;;;6999545;28;20431;-78
2022/08/05 06:20:41;;;;;;;7.85;3.33;;;24.00;91.40;;;;;;7000617;28;20431;-84
2022/08/05 06:24:05;;;;;;;8.88;3.60;;;24.20;91.20;;;;;;6997852;28;20774;-82
2022/08/05 06:27:27;;;;;;;9.05;3.70;;;24.40;91.10;;;;;;6997042;28;20801;-81
2022/08/05 06:30:49;;;;;;;8.43;3.97;;;24.50;90.90;;;;;;6996595;28;20443;-82
2022/08/05 06:34:12;;;;;;;10.50;3.75;;;24.60;90.90;;;;;;6996733;28;20420;-84
2022/08/05 06:37:35;;;;;;;7.97;3.85;;;24.70;90.70;;;;;;6996602;28;20931;-84
2022/08/05 06:40:57;;;;;;;9.75;3.90;;;24.80;90.60;;;;;;6996161;28;20888;-81
2022/08/05 06:44:19;;;;;;;8.27;3.70;;;24.90;90.40;;;;;;6978878;28;20913;-82
2022/08/05 06:47:43;;;;;;;7.35;3.72;;;25.00;90.50;;;;;;6995796;28;20407;-82
2022/08/05 06:51:07;;;;;;;10.65;4.10;;;25.10;90.20;;;;;;6996580;28;20439;-83
2022/08/05 06:54:29;;;;;;;10.00;3.95;;;25.20;90.30;;;;;;6996417;28;20789;-83
2022/08/05 06:57:51;;;;;;;9.68;4.10;;;25.30;90.20;;;;;;7011572;28;20424;-83
2022/08/05 07:01:13;;;;;;;8.30;3.70;;;25.30;88.70;;;;;;7014231;28;20428;-83
2022/08/05 07:04:35;;;;;;;7.93;3.60;;;25.40;89.30;;;;;;7019383;28;20443;-82
2022/08/05 07:07:59;;;;;;;10.15;3.65;;;25.50;89.60;;;;;;7003458;28;20431;-82
2022/08/05 07:11:21;;;;;;;7.85;3.88;;;25.60;89.20;;;;;;6996085;28;20446;-81
2022/08/05 07:18:23;;;;;;;9.15;3.83;;;25.60;87.70;;;;;;7020473;28;20415;-83
2022/08/05 07:21:45;;;;;;;7.80;3.63;;;25.70;88.00;;;;;;7023190;28;20423;-85
2022/08/05 07:25:10;;;;;;;8.27;3.53;;;25.80;87.70;;;;;;7009251;28;20432;-83
2022/08/05 07:28:32;;;;;;;7.90;3.60;;;25.90;87.40;;;;;;6994731;28;20431;-82
2022/08/05 07:31:54;;;;;;;6.25;3.60;;;25.90;86.50;;;;;;6995548;28;20794;-84
2022/08/05 07:35:17;;;;;;;9.73;3.40;;;25.80;86.70;;;;;;6995080;28;20470;-84
2022/08/05 07:38:39;;;;;;;9.77;3.30;;;25.90;86.60;;;;;;6995448;28;20420;-83
2022/08/05 07:42:03;;;;;;;7.47;3.30;;;26.00;86.00;;;;;;6996148;28;20927;-83
2022/08/05 07:45:25;;;;;;;7.30;2.80;;;26.00;84.60;;;;;;6995256;28;20478;-83
2022/08/05 07:48:47;;;;;;;6.63;2.67;;;26.10;82.40;;;;;;6995765;28;20430;-83
2022/08/05 07:52:09;;;;;;;5.82;2.83;;;26.10;81.80;;;;;;6995455;28;20419;-83
2022/08/05 07:55:31;;;;;;;6.35;2.75;;;26.20;82.00;;;;;;6995968;28;20900;-82
2022/08/05 07:58:54;;;;;;;6.20;2.60;;;26.20;82.00;;;;;;6995378;28;20431;-77
2022/08/05 08:02:16;;;;;;;5.55;2.70;;;26.30;82.10;;;;;;6994910;28;20474;-79
2022/08/05 08:05:38;;;;;;;4.80;2.50;;;26.40;80.20;;;;;;6995259;28;20473;-75
2022/08/05 08:09:00;;;;;;;4.97;2.40;;;26.50;79.80;;;;;;6994950;28;20544;-76
2022/08/05 08:12:23;;;;;;;6.03;2.43;;;26.50;77.80;;;;;;6995086;28;20939;-77
2022/08/05 08:15:46;;;;;;;4.53;2.28;;;26.50;78.10;;;;;;6994979;28;20459;-75
2022/08/05 08:19:08;;;;;;;5.43;2.50;;;26.50;75.20;;;;;;6995066;28;20454;-77
2022/08/05 08:22:30;;;;;;;5.35;2.35;;;26.60;75.20;;;;;;6995113;28;20434;-77
2022/08/05 08:25:52;;;;;;;5.05;2.60;;;26.60;74.30;;;;;;6994624;28;20427;-77
2022/08/05 08:29:15;;;;;;;4.22;2.35;;;26.70;74.60;;;;;;6992258;28;20541;-77
2022/08/05 08:32:39;;;;;;;4.65;2.40;;;26.80;74.50;;;;;;6996438;28;20837;-78
2022/08/05 08:36:01;;;;;;;5.25;2.30;;;26.90;74.00;;;;;;6968723;28;20825;-78
2022/08/05 08:39:23;;;;;;;5.80;2.42;;;26.80;75.10;;;;;;6968405;28;20436;-79
2022/08/05 08:42:51;;;;;;;5.47;2.30;;;26.90;74.50;;;;;;6989182;28;20435;-79
2022/08/05 08:46:13;;;;;;;4.25;2.30;;;27.00;74.10;;;;;;6995809;28;20431;-78
2022/08/05 08:49:39;;;;;;;4.88;2.30;;;27.00;73.70;;;;;;6993966;28;20432;-77
2022/08/05 08:53:05;;;;;;;5.30;2.40;;;27.00;73.00;;;;;;6995402;28;20427;-77
2022/08/05 08:56:27;;;;;;;5.47;2.40;;;27.00;72.70;;;;;;6996095;28;20438;-78
2022/08/05 08:59:50;;;;;;;4.70;2.42;;;27.10;72.90;;;;;;6995417;28;21133;-77
2022/08/05 09:03:12;;;;;;;4.50;2.20;;;27.20;73.00;;;;;;6994892;28;20467;-78
2022/08/05 09:06:36;;;;;;;5.45;2.40;;;27.30;73.10;;;;;;6995190;28;20466;-77
2022/08/05 09:09:58;;;;;;;5.23;2.40;;;27.40;71.50;;;;;;6995008;28;20494;-78
2022/08/05 09:13:20;;;;;;;4.45;2.13;;;27.50;72.10;;;;;;6995127;28;20422;-79
2022/08/05 09:16:42;;;;;;;6.63;2.40;;;27.70;71.20;;;;;;6994697;28;20532;-78
2022/08/05 09:20:06;;;;;;;5.00;2.20;;;27.60;70.70;;;;;;6993036;28;20467;-75
2022/08/05 09:23:29;;;;;;;5.47;2.17;;;27.70;71.20;;;;;;6994215;28;20442;-78
2022/08/05 09:26:55;;;;;;;4.73;2.30;;;27.60;71.20;;;;;;6994609;28;20495;-80
2022/08/05 09:30:17;;;;;;;5.00;2.15;;;27.40;70.30;;;;;;6991155;28;20433;-78
2022/08/05 09:33:50;;;;;;;5.55;2.10;;;27.40;69.90;;;;;;6992855;28;20436;-78
2022/08/05 09:37:18;;;;;;;3.87;2.20;;;27.40;70.60;;;;;;6989779;28;20435;-79
2022/08/05 09:40:42;;;;;;;6.15;2.28;;;27.50;71.60;;;;;;6959124;28;20427;-78
2022/08/05 09:44:04;;;;;;;4.88;2.45;;;27.60;71.30;;;;;;6985036;28;20444;-78
2022/08/05 09:47:28;;;;;;;4.67;2.40;;;27.60;72.10;;;;;;6988173;28;20470;-78
2022/08/05 09:50:51;;;;;;;5.65;2.47;;;27.70;71.50;;;;;;6994246;28;20428;-77
2022/08/05 09:54:13;;;;;;;6.43;2.47;;;27.80;71.60;;;;;;6994190;28;20431;-77
2022/08/05 09:57:39;;;;;;;5.17;2.50;;;27.80;71.10;;;;;;6993054;28;20484;-78
2022/08/05 10:01:04;;;;;;;5.30;2.50;;;28.00;71.90;;;;;;6994008;28;20473;-78
2022/08/05 10:04:36;;;;;;;4.27;2.40;;;28.00;70.00;;;;;;6992169;28;20876;-79
2022/08/05 10:08:01;;;;;;;4.95;2.80;;;28.00;69.90;;;;;;6990652;28;20467;-79
2022/08/05 10:11:23;;;;;;;5.38;2.67;;;28.00;69.80;;;;;;6992723;28;20466;-78
2022/08/05 10:14:46;;;;;;;4.65;2.25;;;28.20;69.20;;;;;;6994873;28;20436;-78
2022/08/05 10:18:14;;;;;;;5.57;2.50;;;28.30;69.30;;;;;;6995880;28;20434;-78
2022/08/05 10:21:36;;;;;;;5.40;2.40;;;28.40;69.30;;;;;;6996892;28;20935;-78
2022/08/05 10:24:58;;;;;;;5.32;2.20;;;28.40;69.20;;;;;;6996922;28;20471;-78
2022/08/05 10:28:21;;;;;;;4.88;2.45;;;28.40;66.30;;;;;;6996736;28;20423;-80
2022/08/05 10:31:44;;;;;;;5.78;2.50;;;28.50;67.90;;;;;;6997065;28;20439;-78
2022/08/05 10:35:07;;;;;;;4.32;2.10;;;28.30;68.30;;;;;;6996690;28;20479;-79
2022/08/05 10:38:31;;;;;;;3.63;2.03;;;28.50;66.40;;;;;;6996699;28;20928;-79
2022/08/05 10:42:01;;;;;;;3.90;2.08;;;28.50;64.70;;;;;;6996792;28;20447;-79
2022/08/05 10:45:29;;;;;;;3.70;2.20;;;28.60;65.50;;;;;;6996489;28;20446;-78
2022/08/05 10:48:57;;;;;;;3.95;2.00;;;28.70;65.40;;;;;;6997136;28;21047;-80
2022/08/05 10:52:39;;;;;;;4.57;2.10;;;28.70;64.60;;;;;;6997080;28;20431;-78
2022/08/05 10:56:06;;;;;;;4.35;2.03;;;28.80;64.90;;;;;;6996822;28;20427;-80
2022/08/05 10:59:31;;;;;;;5.80;3.13;;;28.80;65.50;;;;;;6996419;28;20423;-78
2022/08/05 11:03:11;;;;;;;5.30;2.45;;;28.80;64.60;;;;;;6996607;28;20434;-80
2022/08/05 11:07:07;;;;;;;4.68;2.20;;;28.90;65.20;;;;;;6996152;28;20478;-80
2022/08/05 11:10:30;;;;;;;4.83;2.20;;;28.90;64.30;;;;;;6996261;28;20431;-79
2022/08/05 11:13:54;;;;;;;5.03;2.08;;;29.00;63.20;;;;;;6995887;28;20424;-78
2022/08/05 11:17:29;;;;;;;4.70;2.53;;;29.00;63.20;;;;;;6995928;28;20514;-79
2022/08/05 11:20:52;;;;;;;3.95;2.10;;;29.00;63.40;;;;;;6995578;28;20434;-79
2022/08/05 11:24:16;;;;;;;4.25;2.05;;;29.00;62.70;;;;;;6995693;28;20427;-79
2022/08/05 11:27:38;;;;;;;4.20;2.20;;;29.00;62.50;;;;;;6996132;28;20451;-80
2022/08/05 11:31:30;;;;;;;4.88;2.03;;;29.00;62.10;;;;;;6995870;28;20423;-79
2022/08/05 11:34:52;;;;;;;3.65;1.77;;;29.10;63.00;;;;;;6995733;28;20428;-78
2022/08/05 11:38:14;;;;;;;5.18;2.00;;;29.30;62.20;;;;;;6996022;28;20770;-79
2022/08/05 11:41:37;;;;;;;4.05;2.00;;;29.30;60.30;;;;;;6995390;28;20435;-78
2022/08/05 11:45:04;;;;;;;3.30;1.90;;;29.30;60.00;;;;;;6994356;28;20845;-78
2022/08/05 11:48:27;;;;;;;4.35;1.88;;;29.40;61.30;;;;;;6967721;28;20906;-80
2022/08/05 11:51:52;;;;;;;3.63;1.80;;;29.50;60.30;;;;;;6967682;28;20444;-78
2022/08/05 11:55:14;;;;;;;3.25;1.70;;;29.50;58.90;;;;;;6967970;28;20480;-79
2022/08/05 11:58:40;;;;;;;3.55;1.80;;;29.70;59.20;;;;;;6967574;28;20429;-77
2022/08/05 12:02:05;;;;;;;3.70;1.80;;;29.70;59.80;;;;;;6967621;28;20486;-78
2022/08/05 12:05:28;;;;;;;3.13;1.80;;;29.80;60.00;;;;;;6971820;28;20979;-78
2022/08/05 12:08:53;;;;;;;4.57;1.83;;;29.90;59.40;;;;;;6991741;28;20427;-81
2022/08/05 12:12:22;;;;;;;3.70;1.80;;;30.00;57.90;;;;;;6999861;28;20490;-78
2022/08/05 12:15:46;;;;;;;4.05;1.90;;;30.10;57.40;;;;;;6998963;28;20913;-77
2022/08/05 12:19:11;;;;;;;3.65;1.60;;;30.30;57.90;;;;;;6999365;28;20955;-83
2022/08/05 12:22:33;;;;;;;3.60;1.90;;;30.40;56.00;;;;;;6996235;28;20436;-89
2022/08/05 12:25:55;;;;;;;4.80;1.90;;;30.30;56.30;;;;;;7019882;28;20469;-89
2022/08/05 12:29:20;;;;;;;5.07;2.10;;;30.30;56.70;;;;;;7003359;28;20431;-88
2022/08/05 12:32:49;;;;;;;4.38;1.90;;;30.30;57.30;;;;;;7000857;28;20923;-86
2022/08/05 12:36:13;;;;;;;3.55;1.75;;;30.50;57.40;;;;;;7000745;28;20424;-82
2022/08/05 12:39:35;;;;;;;3.47;2.00;;;30.70;57.00;;;;;;6999082;28;20431;-77
2022/08/05 12:42:57;;;;;;;3.30;1.80;;;31.00;56.90;;;;;;6988629;28;20432;-78
2022/08/05 12:46:25;;;;;;;6.05;2.00;;;31.10;56.90;;;;;;6995259;28;20924;-80
2022/08/05 12:49:48;;;;;;;4.60;1.88;;;31.20;56.80;;;;;;6996904;28;20944;-77
2022/08/05 12:53:16;;;;;;;3.95;1.90;;;31.20;56.30;;;;;;6995265;28;20789;-79
2022/08/05 12:56:42;;;;;;;3.40;1.83;;;31.50;56.40;;;;;;6994818;28;20435;-80
2022/08/05 13:00:20;;;;;;;3.87;1.80;;;31.60;56.50;;;;;;6995628;28;20507;-78
2022/08/05 13:03:42;;;;;;;4.70;2.13;;;31.60;56.10;;;;;;6994617;28;20440;-79
2022/08/05 13:07:11;;;;;;;4.60;1.98;;;31.60;55.10;;;;;;6993997;28;20463;-78
2022/08/05 13:10:33;;;;;;;6.07;4.28;;;31.40;55.30;;;;;;6995271;28;20432;-78
2022/08/05 13:13:57;;;;;;;3.63;2.15;;;31.70;55.50;;;;;;6990944;28;20423;-79
2022/08/05 13:17:21;;;;;;;5.35;2.88;;;31.80;55.30;;;;;;6992802;28;20432;-77
2022/08/05 13:20:43;;;;;;;4.15;2.20;;;31.90;55.90;;;;;;6995352;28;20976;-77
2022/08/05 13:24:07;;;;;;;5.00;2.05;;;32.20;55.60;;;;;;6996279;28;20435;-79
2022/08/05 13:27:32;;;;;;;3.97;2.00;;;32.20;55.00;;;;;;6995093;28;20526;-79
2022/08/05 13:30:54;;;;;;;4.53;1.90;;;32.30;56.00;;;;;;6994852;28;20438;-77
2022/08/05 13:34:17;;;;;;;4.00;1.92;;;32.50;55.80;;;;;;6994995;28;20839;-78
2022/08/05 13:37:39;;;;;;;4.97;2.10;;;32.50;54.70;;;;;;6993994;28;20431;-76
2022/08/05 13:41:02;;;;;;;3.92;1.70;;;32.50;54.40;;;;;;6995222;28;20545;-77
2022/08/05 13:44:24;;;;;;;4.07;1.77;;;32.60;54.30;;;;;;6995884;28;20813;-77
2022/08/05 13:47:46;;;;;;;4.88;2.10;;;32.70;53.90;;;;;;6993879;28;20797;-79
2022/08/05 13:51:10;;;;;;;4.22;2.00;;;32.60;54.10;;;;;;6994212;28;20951;-78
2022/08/05 13:54:32;;;;;;;4.03;2.08;;;32.60;54.10;;;;;;6994021;28;20439;-77
2022/08/05 13:57:55;;;;;;;4.65;2.05;;;32.80;54.20;;;;;;6994523;28;20428;-80
2022/08/05 14:01:17;;;;;;;3.63;1.87;;;33.10;54.30;;;;;;6994808;28;20434;-79
2022/08/05 14:08:21;;;;;;;4.28;2.05;;;33.40;53.60;;;;;;6994594;28;20444;-78
2022/08/05 14:11:43;;;;;;;7.63;4.63;;;33.50;53.00;;;;;;6994813;28;20459;-80
2022/08/05 14:15:08;;;;;;;5.50;3.40;;;33.00;52.70;;;;;;6992908;28;20427;-78
2022/08/05 14:18:30;;;;;;;7.72;4.40;;;32.70;54.00;;;;;;6993521;28;20809;-78
2022/08/05 14:21:52;;;;;;;4.95;2.47;;;32.30;54.90;;;;;;6993429;28;20454;-78
2022/08/05 14:25:14;;;;;;;4.05;2.10;;;32.20;55.00;;;;;;6993713;28;20478;-81
2022/08/05 14:28:36;;;;;;;5.35;2.00;;;32.10;55.00;;;;;;6992388;28;20435;-78
2022/08/05 14:32:00;;;;;;;4.32;2.00;;;32.10;55.20;;;;;;6993327;28;20459;-78
2022/08/05 14:35:22;;;;;;;4.23;2.03;;;31.90;55.20;;;;;;6995215;28;20789;-79
2022/08/05 14:38:44;;;;;;;4.03;2.30;;;31.90;55.50;;;;;;6993761;28;20427;-77
2022/08/05 14:42:07;;;;;;;5.30;2.40;;;31.80;55.70;;;;;;6994890;28;20924;-79
2022/08/05 14:45:30;;;;;;;5.03;2.38;;;31.70;55.90;;;;;;6994447;28;20462;-78
2022/08/05 14:48:53;;;;;;;6.13;2.60;;;31.70;55.50;;;;;;6992698;28;20440;-77
2022/08/05 14:52:15;;;;;;;5.93;2.42;;;31.70;56.10;;;;;;6992916;28;20435;-78
2022/08/05 14:55:37;;;;;;;5.72;2.22;;;31.60;56.30;;;;;;6993747;28;20427;-77
2022/08/05 14:59:00;;;;;;;4.68;2.20;;;31.60;56.40;;;;;;6993812;28;20951;-77
2022/08/05 15:02:22;;;;;;;5.07;2.30;;;31.50;57.80;;;;;;6997468;28;20431;-84
2022/08/05 15:05:45;;;;;;;5.07;2.42;;;31.70;57.00;;;;;;6996975;28;20434;-79
2022/08/05 15:09:08;;;;;;;4.20;2.43;;;31.90;56.40;;;;;;6996732;28;20433;-78
2022/08/05 15:12:31;;;;;;;4.50;2.23;;;32.50;56.00;;;;;;6990266;28;20439;-79
2022/08/05 15:15:55;;;;;;;4.88;2.10;;;33.20;54.90;;;;;;6988986;28;20439;-78
2022/08/05 15:19:17;;;;;;;3.17;2.00;;;33.30;54.20;;;;;;6992522;28;20442;-79
2022/08/05 15:22:41;;;;;;;3.22;2.10;;;33.40;53.80;;;;;;6989508;28;20440;-80
2022/08/05 15:26:03;;;;;;;4.18;2.00;;;33.70;52.50;;;;;;6993175;28;20439;-82
2022/08/05 15:29:25;;;;;;;7.25;3.25;;;33.80;53.10;;;;;;6993286;28;20439;-81
2022/08/05 15:32:47;;;;;;;4.18;2.20;;;33.90;52.80;;;;;;6993344;28;20455;-81
2022/08/05 15:36:13;;;;;;;5.18;2.00;;;33.60;52.80;;;;;;6992395;28;20439;-81
2022/08/05 15:39:37;;;;;;;5.40;2.17;;;33.20;53.40;;;;;;6995752;28;20480;-79
2022/08/05 15:42:59;;;;;;;5.53;2.40;;;32.90;54.90;;;;;;6998271;28;20431;-79
2022/08/05 15:46:21;;;;;;;5.50;2.20;;;32.50;55.00;;;;;;6998207;28;20450;-81
2022/08/05 15:49:48;;;;;;;6.32;2.17;;;32.40;56.30;;;;;;6998778;28;20428;-79
2022/08/05 15:53:10;;;;;;;8.63;2.72;;;32.80;56.00;;;;;;6998585;28;20431;-82
2022/08/05 15:56:34;;;;;;;5.22;2.60;;;33.00;59.40;;;;;;6998577;28;20473;-78
2022/08/05 15:59:56;;;;;;;6.10;2.70;;;32.70;61.30;;;;;;6997846;28;20481;-80
2022/08/05 16:03:18;;;;;;;5.07;2.50;;;32.60;61.80;;;;;;6998184;28;20466;-78
2022/08/05 16:06:40;;;;;;;5.38;2.60;;;32.90;60.90;;;;;;6998013;28;20446;-78
2022/08/05 16:10:03;;;;;;;5.40;2.70;;;33.10;59.40;;;;;;6998100;28;20427;-78
2022/08/05 16:13:26;;;;;;;5.28;2.60;;;33.40;59.30;;;;;;6995948;28;20431;-79
2022/08/05 16:16:49;;;;;;;7.38;2.50;;;33.70;59.20;;;;;;6996424;28;20432;-78
2022/08/05 16:20:11;;;;;;;7.03;2.60;;;33.80;58.70;;;;;;6995607;28;20481;-77
2022/08/05 16:23:33;;;;;;;6.25;2.58;;;34.00;58.10;;;;;;6995649;28;20431;-79
2022/08/05 16:26:57;;;;;;;5.40;2.38;;;34.40;57.60;;;;;;6969816;28;20470;-78
2022/08/05 16:30:21;;;;;;;6.20;2.60;;;34.60;57.00;;;;;;6984287;28;20801;-80
2022/08/05 16:33:44;;;;;;;4.80;2.70;;;34.70;56.50;;;;;;6998246;28;20430;-78
2022/08/05 16:37:06;;;;;;;5.20;2.70;;;34.50;56.40;;;;;;6997466;28;20572;-78
2022/08/05 16:40:28;;;;;;;5.38;2.75;;;34.40;56.70;;;;;;6996827;28;20438;-80
2022/08/05 16:43:50;;;;;;;6.35;3.10;;;34.00;57.30;;;;;;6998248;28;20438;-79
2022/08/05 16:47:14;;;;;;;5.78;2.72;;;34.20;57.10;;;;;;6999173;28;20447;-75
2022/08/05 16:50:36;;;;;;;6.50;3.80;;;34.10;57.20;;;;;;6998650;28;20466;-82
2022/08/05 16:53:59;;;;;;;5.68;2.70;;;33.90;57.20;;;;;;7005145;28;20431;-85
2022/08/05 16:57:23;;;;;;;5.05;2.55;;;34.10;57.10;;;;;;7004688;28;20443;-83
2022/08/05 17:00:45;;;;;;;5.17;2.60;;;34.20;56.90;;;;;;7002246;28;20423;-83
2022/08/05 17:04:09;;;;;;;5.57;2.70;;;34.40;56.90;;;;;;7001391;28;20510;-84
2022/08/05 17:07:31;;;;;;;4.97;2.60;;;34.20;56.80;;;;;;7000293;28;20506;-85
2022/08/05 17:10:53;;;;;;;4.73;2.57;;;34.00;56.90;;;;;;7011302;28;20423;-86
2022/08/05 17:14:15;;;;;;;5.60;2.80;;;34.00;56.60;;;;;;7007042;28;20935;-87
2022/08/05 17:17:40;;;;;;;4.43;2.43;;;33.70;56.60;;;;;;7002308;28;20447;-83
2022/08/05 17:21:04;;;;;;;4.07;2.55;;;33.70;56.70;;;;;;6998895;28;20440;-79
2022/08/05 17:24:26;;;;;;;4.77;2.37;;;33.60;57.30;;;;;;6997958;28;20983;-81
2022/08/05 17:27:48;;;;;;;8.25;4.70;;;33.60;56.70;;;;;;6998033;28;20482;-81
2022/08/05 17:31:10;;;;;;;5.13;2.50;;;33.40;57.20;;;;;;6997800;28;20489;-82
2022/08/05 17:34:32;;;;;;;5.80;2.70;;;33.20;57.10;;;;;;6996031;28;20467;-81
2022/08/05 17:37:56;;;;;;;5.70;2.30;;;33.20;57.10;;;;;;6996880;28;20478;-81
2022/08/05 17:41:20;;;;;;;4.85;2.60;;;33.00;57.10;;;;;;6997110;28;20431;-82
2022/08/05 17:44:42;;;;;;;6.43;2.60;;;32.60;58.20;;;;;;6997385;28;20485;-83
2022/08/05 17:48:06;;;;;;;4.90;2.70;;;32.30;58.30;;;;;;6996928;28;20872;-84